Ulaanbaatar, Mongolia

5:49 PM ULAT on August 22, 2014 (GMT +0800)
Buyant-Ukhaa | Change Station
CLOSE
Current Station
Airport
Location: Ulaanbaatar,
Elevation: 4364 ft
Nearby Weather Stations

Elev 4364 ft 47.83 °N, 106.78 °E | Updated 19 minutes ago

Scattered Clouds
Scattered Clouds
57 °F
Feels Like 57 °F
N
18
Wind Variable Wind from North
Gusts 29 mph

Today
High -- | Low -- °F
--% Chance of Precip.
Yesterday
High -- | Low -- °F
Precip. -- in
5:56 AM 7:53 PM
Waning Crescent, 9% visible
Pressure 29.95 in
Visibility 6.2 miles
Clouds Scattered Clouds 3300 ft
Dew Point 37 °F
Humidity 48%
Rainfall 0.00 in
Snow Depth Not available.
UV 1 out of 12
Pollen Not available.
Air Quality Not available.
Flu Activity Not available.
METAR ZMUB 220930Z 36008G13MPS 320V040 9999 SCT033 14/03 Q1014 NOSIG RMK QFE653.4 47 MOP

More Conditions Fewer Conditions

Pressure 29.95 in
Visibility 6.2 miles
Clouds Scattered Clouds 3300 ft
Dew Point 37 °F
Humidity 48%
Rainfall 0.00 in
Snow Depth Not available.
UV 1 out of 12
Pollen Not available.
Air Quality Not available.
Flu Activity Not available.
METAR ZMUB 220930Z 36008G13MPS 320V040 9999 SCT033 14/03 Q1014 NOSIG RMK QFE653.4 47 MOP

More Conditions Fewer Conditions

10-Day Weather Forecast

Almanac

Astronomy

Aug. 22, 2014 Rise Set
Actual Time 5:56 AM ULAT 7:53 PM ULAT
Civil Twilight 5:23 AM ULAT 8:27 PM ULAT
Nautical Twilight 4:42 AM ULAT 9:07 PM ULAT
Astronomical Twilight 3:57 AM ULAT 9:53 PM ULAT
Moon 2:44 AM ULAT 5:46 PM ULAT
Length of Visible Light 15h 03m
Length of Day
13h 57m
Tomorrow will be 3m 14s shorter.
Waning Crescent, 9% of the Moon is Illuminated
Today
Waning Crescent
Aug 25
New
Sep 2
First Quarter
Sep 8
Full
Sep 15
Last Quarter

Yesterday's Extremes

Country Highs Country Lows

Community

WunderPhotos

Upload Photos

1,746,146 photos uploaded!

Nearby

Snow Depth

Not available.

Earthquake Activity

City Distance Mag. Time & Date
No recent earthquake activity has been reported nearby.
Minimum magnitude displayed is 2.5.

Coastal Water Temperatures

Place Temperature
No Stations Reporting

Nearby Weather Stations